createdAt,value
2023-05-04T00:00:16.077Z,50.79
2023-05-04T00:02:45.044Z,50.95
2023-05-04T00:05:14.613Z,50.78
2023-05-04T00:07:43.550Z,50.65
2023-05-04T00:10:12.854Z,50.58
2023-05-04T00:12:43.146Z,50.54
2023-05-04T00:15:12.355Z,50.52
2023-05-04T00:17:41.491Z,50.55
2023-05-04T00:20:11.030Z,49.97
2023-05-04T00:22:39.751Z,50.00
2023-05-04T00:25:09.228Z,50.12
2023-05-04T00:27:38.434Z,49.83
2023-05-04T00:30:08.115Z,49.72
2023-05-04T00:32:37.274Z,49.51
2023-05-04T00:35:06.878Z,49.48
2023-05-04T00:37:35.692Z,49.17
2023-05-04T00:40:08.050Z,49.17
2023-05-04T00:42:37.097Z,49.53
2023-05-04T00:45:05.990Z,49.02
2023-05-04T00:47:35.128Z,49.08
2023-05-04T00:50:05.705Z,48.73
2023-05-04T00:52:35.633Z,48.68
2023-05-04T00:55:04.673Z,48.28
2023-05-04T00:57:33.694Z,48.16
2023-05-04T01:00:05.601Z,48.44
2023-05-04T01:02:34.767Z,47.80
2023-05-04T01:05:04.057Z,48.22
2023-05-04T01:08:17.495Z,47.55
2023-05-04T01:10:51.695Z,46.96
2023-05-04T01:13:23.288Z,45.96
2023-05-04T01:15:52.648Z,44.68
2023-05-04T01:18:21.609Z,43.54
2023-05-04T01:20:50.589Z,41.99
2023-05-04T01:23:19.341Z,41.02
2023-05-04T01:26:04.340Z,40.18
2023-05-04T01:28:45.004Z,39.35
2023-05-04T01:31:17.948Z,37.82
2023-05-04T01:33:47.317Z,37.36
2023-05-04T01:36:16.564Z,36.95
2023-05-04T01:38:45.413Z,36.54
2023-05-04T01:41:14.053Z,36.02
2023-05-04T01:43:43.971Z,35.97
2023-05-04T01:46:13.055Z,35.48
2023-05-04T01:48:41.870Z,35.24
2023-05-04T01:51:13.330Z,35.58
2023-05-04T01:53:42.188Z,35.14
2023-05-04T01:56:11.405Z,35.11
2023-05-04T01:58:40.712Z,34.63
2023-05-04T02:01:10.070Z,34.34
2023-05-04T02:03:39.466Z,33.88
2023-05-04T02:06:09.408Z,34.64
2023-05-04T02:08:39.074Z,34.08
2023-05-04T02:11:09.094Z,33.86
2023-05-04T02:13:38.086Z,33.58
2023-05-04T02:16:08.532Z,33.42
2023-05-04T02:18:37.651Z,33.17
2023-05-04T02:21:06.621Z,33.36
2023-05-04T02:23:38.130Z,32.93
2023-05-04T02:26:07.868Z,33.21
2023-05-04T02:28:36.654Z,33.29
2023-05-04T02:31:05.618Z,33.14
2023-05-04T02:33:34.910Z,33.05
2023-05-04T02:36:03.690Z,32.86
2023-05-04T02:38:33.269Z,32.40
2023-05-04T02:41:02.025Z,32.26
2023-05-04T02:43:30.793Z,32.10
2023-05-04T02:46:01.406Z,31.31
2023-05-04T02:48:30.449Z,31.22
2023-05-04T02:50:59.691Z,31.36
2023-05-04T02:53:28.623Z,30.21
2023-05-04T02:55:57.560Z,30.61
2023-05-04T02:58:26.464Z,30.34
2023-05-04T03:00:56.937Z,29.57
2023-05-04T03:03:26.038Z,29.79
2023-05-04T03:05:55.083Z,29.69
2023-05-04T03:08:24.641Z,29.63
2023-05-04T03:10:53.635Z,28.69
2023-05-04T03:13:22.872Z,28.91
2023-05-04T03:15:52.016Z,28.63
2023-05-04T03:18:23.025Z,28.47
2023-05-04T03:20:52.331Z,28.51
2023-05-04T03:23:23.423Z,28.14
2023-05-04T03:25:52.432Z,27.73
2023-05-04T03:28:21.180Z,27.21
2023-05-04T03:30:50.374Z,27.27
2023-05-04T03:33:22.010Z,27.10
2023-05-04T03:35:50.973Z,27.25
2023-05-04T03:38:19.696Z,26.95
2023-05-04T03:40:48.686Z,26.67
2023-05-04T03:43:17.660Z,26.71
2023-05-04T03:45:47.289Z,26.36
2023-05-04T03:48:16.033Z,26.70
2023-05-04T03:50:45.392Z,25.94
2023-05-04T03:53:14.268Z,26.29
2023-05-04T03:55:43.704Z,25.61
2023-05-04T03:58:12.634Z,25.58
2023-05-04T04:00:41.459Z,25.06
2023-05-04T04:03:15.744Z,25.62
2023-05-04T04:05:44.611Z,25.30
2023-05-04T04:08:15.035Z,24.82
2023-05-04T04:10:43.917Z,24.64
2023-05-04T04:13:13.198Z,24.67
2023-05-04T04:15:45.438Z,24.72
2023-05-04T04:18:14.546Z,24.03
2023-05-04T04:20:43.476Z,23.79
2023-05-04T04:23:12.405Z,23.66
2023-05-04T04:25:42.535Z,23.88
2023-05-04T04:28:12.352Z,23.59
2023-05-04T04:30:42.470Z,23.14
2023-05-04T04:33:11.520Z,22.98
2023-05-04T04:35:40.317Z,22.76
2023-05-04T04:38:09.123Z,23.16
2023-05-04T04:40:38.092Z,22.72
2023-05-04T04:43:06.965Z,22.95
2023-05-04T04:45:36.607Z,22.92
2023-05-04T04:48:05.581Z,22.74
2023-05-04T04:50:34.518Z,22.54
2023-05-04T04:53:03.312Z,22.85
2023-05-04T04:55:32.272Z,22.26
2023-05-04T04:58:01.108Z,22.24
2023-05-04T05:00:30.050Z,22.17
2023-05-04T05:02:58.825Z,21.74
2023-05-04T05:05:29.115Z,21.85
2023-05-04T05:07:59.023Z,22.01
2023-05-04T05:10:27.940Z,21.30
2023-05-04T05:12:57.105Z,20.89
2023-05-04T05:15:26.164Z,21.54
2023-05-04T05:17:55.240Z,21.35
2023-05-04T05:20:24.288Z,21.07
2023-05-04T05:22:53.201Z,20.88
2023-05-04T05:25:22.236Z,20.54
2023-05-04T05:27:51.098Z,20.68
2023-05-04T05:30:20.117Z,20.96
2023-05-04T05:32:49.478Z,20.71
2023-05-04T05:35:18.499Z,21.08
2023-05-04T05:37:49.337Z,20.78
2023-05-04T05:40:18.400Z,20.03
2023-05-04T05:42:47.052Z,19.99
2023-05-04T05:45:16.020Z,20.55
2023-05-04T05:47:44.750Z,20.23
2023-05-04T05:50:15.482Z,20.15
2023-05-04T05:52:43.980Z,20.08
2023-05-04T05:55:13.176Z,20.30
2023-05-04T05:57:44.394Z,20.03
2023-05-04T06:00:14.185Z,20.02
2023-05-04T06:02:43.453Z,19.53
2023-05-04T06:05:12.428Z,18.91
2023-05-04T06:07:41.356Z,19.27
2023-05-04T06:10:11.614Z,19.51
2023-05-04T06:12:40.486Z,18.85
2023-05-04T06:15:10.600Z,18.93
2023-05-04T06:17:39.827Z,18.92
2023-05-04T06:20:10.058Z,18.69
2023-05-04T06:22:38.741Z,18.48
2023-05-04T06:25:08.293Z,18.23
2023-05-04T06:27:38.100Z,18.11
2023-05-04T06:30:10.292Z,18.46
2023-05-04T06:32:39.293Z,18.23
2023-05-04T06:35:09.761Z,18.19
2023-05-04T06:37:38.936Z,18.87
2023-05-04T06:40:08.989Z,17.92
2023-05-04T06:42:37.918Z,17.99
2023-05-04T06:45:07.356Z,17.97
2023-05-04T06:47:37.902Z,18.07
2023-05-04T06:50:10.727Z,17.97
2023-05-04T06:52:41.657Z,18.27
2023-05-04T06:55:10.637Z,17.57
2023-05-04T06:57:39.153Z,17.77
2023-05-04T07:00:09.182Z,17.46
2023-05-04T07:02:38.052Z,17.69
2023-05-04T07:05:07.027Z,17.79
2023-05-04T07:07:36.014Z,16.86
2023-05-04T07:10:05.159Z,16.87
2023-05-04T07:12:34.093Z,17.44
2023-05-04T07:15:02.853Z,17.15
2023-05-04T07:17:33.041Z,16.82
2023-05-04T07:20:06.426Z,17.02
2023-05-04T07:22:35.407Z,16.76
2023-05-04T07:25:04.797Z,16.95
2023-05-04T07:27:35.297Z,17.20
2023-05-04T07:30:04.492Z,17.20
2023-05-04T07:32:33.962Z,17.10
2023-05-04T07:35:02.868Z,16.92
2023-05-04T07:37:31.366Z,16.82
2023-05-04T07:40:06.831Z,16.49
2023-05-04T07:42:35.848Z,17.01
2023-05-04T07:45:05.376Z,16.63
2023-05-04T07:47:34.134Z,16.49
2023-05-04T07:50:03.016Z,16.44
2023-05-04T07:52:31.934Z,16.59
2023-05-04T07:55:00.652Z,16.65
2023-05-04T07:57:32.046Z,16.50
2023-05-04T08:00:00.683Z,16.45
2023-05-04T08:02:30.215Z,16.65
2023-05-04T08:05:01.743Z,16.91
2023-05-04T08:07:30.522Z,16.58
2023-05-04T08:09:59.938Z,16.86
2023-05-04T08:12:28.928Z,16.54
2023-05-04T08:14:58.023Z,16.06
2023-05-04T08:17:27.141Z,16.59
2023-05-04T08:19:57.993Z,16.29
2023-05-04T08:22:27.146Z,16.37
2023-05-04T08:24:56.291Z,16.33
2023-05-04T08:27:24.993Z,16.32
2023-05-04T08:29:53.660Z,17.11
2023-05-04T08:32:22.332Z,16.61
2023-05-04T08:34:52.645Z,17.03
2023-05-04T08:37:21.810Z,17.18
2023-05-04T08:39:50.705Z,17.15
2023-05-04T08:42:32.540Z,16.87
2023-05-04T08:45:01.642Z,17.03
2023-05-04T08:47:30.655Z,17.12
2023-05-04T08:49:59.300Z,17.48
2023-05-04T08:52:29.360Z,17.43
2023-05-04T08:54:59.657Z,17.17
2023-05-04T08:57:28.839Z,17.44
2023-05-04T09:00:00.180Z,16.38
2023-05-04T09:02:30.411Z,16.47
2023-05-04T09:04:59.621Z,16.43
2023-05-04T09:07:28.908Z,16.32
2023-05-04T09:09:58.797Z,16.50
2023-05-04T09:12:28.464Z,16.64
2023-05-04T09:14:58.089Z,17.05
2023-05-04T09:17:28.464Z,17.49
2023-05-04T09:20:04.618Z,17.59
2023-05-04T09:22:34.352Z,17.51
2023-05-04T09:25:21.154Z,17.93
2023-05-04T09:27:57.753Z,18.27
2023-05-04T09:30:27.510Z,18.39
2023-05-04T09:32:56.589Z,18.36
2023-05-04T09:35:33.505Z,18.03
2023-05-04T09:38:03.292Z,18.05
2023-05-04T09:40:33.544Z,17.89
2023-05-04T09:43:02.907Z,17.83
2023-05-04T09:45:48.242Z,17.84
2023-05-04T09:48:21.136Z,17.96
2023-05-04T09:50:57.384Z,17.79
2023-05-04T09:53:31.417Z,17.48
2023-05-04T09:56:08.099Z,17.47
2023-05-04T09:58:37.733Z,17.45
2023-05-04T10:01:07.359Z,17.54
2023-05-04T10:03:36.354Z,17.46
2023-05-04T10:06:06.817Z,17.22
2023-05-04T10:08:36.942Z,17.64
2023-05-04T10:11:06.412Z,17.82
2023-05-04T10:13:35.414Z,17.60
2023-05-04T10:16:28.004Z,17.38
2023-05-04T10:19:09.999Z,17.56
2023-05-04T10:21:44.842Z,17.40
2023-05-04T10:24:54.228Z,17.68
2023-05-04T10:27:48.317Z,17.46
2023-05-04T10:30:22.108Z,17.59
2023-05-04T10:33:00.212Z,17.61
2023-05-04T10:35:29.116Z,17.73
2023-05-04T10:37:58.128Z,17.41
2023-05-04T10:40:37.350Z,17.20
2023-05-04T10:43:07.696Z,17.12
2023-05-04T10:45:43.513Z,17.52
2023-05-04T10:48:12.540Z,17.46
2023-05-04T10:50:47.360Z,17.25
2023-05-04T10:53:20.048Z,17.36
2023-05-04T10:55:49.790Z,17.61
2023-05-04T10:58:29.479Z,17.48
2023-05-04T11:00:58.412Z,17.46
2023-05-04T11:03:28.891Z,17.82
2023-05-04T11:05:57.763Z,17.75
2023-05-04T11:08:27.779Z,17.67
2023-05-04T11:11:05.318Z,17.49
2023-05-04T11:13:42.476Z,17.69
2023-05-04T11:16:13.346Z,17.88
2023-05-04T11:18:42.192Z,18.05
2023-05-04T11:21:11.012Z,18.07
2023-05-04T11:23:40.459Z,17.93
2023-05-04T11:26:09.840Z,18.09
2023-05-04T11:28:39.559Z,18.20
2023-05-04T11:31:29.332Z,18.06
2023-05-04T11:33:58.134Z,18.21
2023-05-04T11:36:30.009Z,18.13
2023-05-04T11:38:59.348Z,18.20
2023-05-04T11:41:30.366Z,18.19
2023-05-04T11:44:01.241Z,18.03
2023-05-04T11:46:30.994Z,17.97
2023-05-04T11:49:00.822Z,18.26
2023-05-04T11:51:30.459Z,18.25
2023-05-04T11:54:01.827Z,18.31
2023-05-04T11:56:30.501Z,18.60
2023-05-04T11:59:10.075Z,18.67
2023-05-04T12:01:41.053Z,18.62
2023-05-04T12:04:09.814Z,18.81
2023-05-04T12:06:39.645Z,18.57
2023-05-04T12:09:08.544Z,18.85
2023-05-04T12:11:39.039Z,18.60
2023-05-04T12:14:17.996Z,18.32
2023-05-04T12:17:04.546Z,18.52
2023-05-04T12:19:33.381Z,18.61
2023-05-04T12:22:02.965Z,18.49
2023-05-04T12:24:31.806Z,18.46
2023-05-04T12:27:02.741Z,18.51
2023-05-04T12:29:31.912Z,18.46
2023-05-04T12:32:00.562Z,18.63
2023-05-04T12:34:31.931Z,18.48
2023-05-04T12:37:00.602Z,18.81
2023-05-04T12:39:30.711Z,18.72
2023-05-04T12:42:00.419Z,19.24
2023-05-04T12:44:29.591Z,19.17
2023-05-04T12:46:58.399Z,19.24
2023-05-04T12:49:27.166Z,19.49
2023-05-04T12:51:55.849Z,19.20
2023-05-04T12:54:24.566Z,19.24
2023-05-04T12:56:54.199Z,19.20
2023-05-04T12:59:26.846Z,19.60
2023-05-04T13:01:55.896Z,19.47
2023-05-04T13:04:24.731Z,19.51
2023-05-04T13:06:53.636Z,19.49
2023-05-04T13:09:22.475Z,19.54
2023-05-04T13:11:51.311Z,19.84
2023-05-04T13:14:20.183Z,19.89
2023-05-04T13:16:52.332Z,20.01
2023-05-04T13:19:20.921Z,19.93
2023-05-04T13:21:49.604Z,20.56
2023-05-04T13:24:18.420Z,20.47
2023-05-04T13:26:49.588Z,20.33
2023-05-04T13:29:18.425Z,20.47
2023-05-04T13:31:47.111Z,20.52
2023-05-04T13:34:15.850Z,20.89
2023-05-04T13:36:44.434Z,20.95
2023-05-04T13:39:13.312Z,20.99
2023-05-04T13:41:41.968Z,21.68
2023-05-04T13:44:10.735Z,21.61
2023-05-04T13:46:39.612Z,21.92
2023-05-04T13:49:08.744Z,21.79
2023-05-04T13:51:38.878Z,22.14
2023-05-04T13:54:07.696Z,22.68
2023-05-04T13:56:36.475Z,22.89
2023-05-04T13:59:05.369Z,23.16
2023-05-04T14:01:34.562Z,23.13
2023-05-04T14:04:03.459Z,23.60
2023-05-04T14:06:32.370Z,23.92
2023-05-04T14:09:01.357Z,24.05
2023-05-04T14:11:30.371Z,24.02
2023-05-04T14:13:59.372Z,24.23
2023-05-04T14:16:28.653Z,24.44
2023-05-04T14:18:57.890Z,24.84
2023-05-04T14:21:26.904Z,24.57
2023-05-04T14:23:55.605Z,24.92
2023-05-04T14:26:24.528Z,24.96
2023-05-04T14:28:53.600Z,25.37
2023-05-04T14:31:22.458Z,25.23
2023-05-04T14:33:51.242Z,25.91
2023-05-04T14:36:20.553Z,26.14
2023-05-04T14:38:51.937Z,26.22
2023-05-04T14:41:21.334Z,26.81
2023-05-04T14:43:50.388Z,26.92
2023-05-04T14:46:19.620Z,26.94
2023-05-04T14:48:49.255Z,27.26
2023-05-04T14:51:30.746Z,27.45
2023-05-04T14:54:00.531Z,28.08
2023-05-04T14:56:29.577Z,28.24
2023-05-04T14:58:58.532Z,27.40
2023-05-04T15:01:27.540Z,27.81
2023-05-04T15:03:57.256Z,27.85
2023-05-04T15:06:27.941Z,28.30
2023-05-04T15:08:57.013Z,28.11
2023-05-04T15:11:26.672Z,28.32
2023-05-04T15:13:58.776Z,28.48
2023-05-04T15:16:33.525Z,29.05
2023-05-04T15:19:03.022Z,29.37
2023-05-04T15:21:32.620Z,29.13
2023-05-04T15:24:01.595Z,29.04
2023-05-04T15:26:31.695Z,29.30
2023-05-04T15:29:00.379Z,29.63
2023-05-04T15:31:29.219Z,29.74
2023-05-04T15:33:57.993Z,29.87
2023-05-04T15:36:27.924Z,29.87
2023-05-04T15:38:56.908Z,30.55
2023-05-04T15:41:25.597Z,30.25
2023-05-04T15:43:54.856Z,30.54
2023-05-04T15:46:23.817Z,30.76
2023-05-04T15:48:52.464Z,30.98
2023-05-04T15:51:21.964Z,31.03
2023-05-04T15:53:50.834Z,30.92
2023-05-04T15:56:19.978Z,30.88
2023-05-04T15:58:48.956Z,30.83
2023-05-04T16:01:18.497Z,31.57
2023-05-04T16:03:48.322Z,31.18
2023-05-04T16:06:18.245Z,31.50
2023-05-04T16:08:47.164Z,31.25
2023-05-04T16:11:17.036Z,31.38
2023-05-04T16:13:48.419Z,31.11
2023-05-04T16:16:17.692Z,30.79
2023-05-04T16:18:46.586Z,31.42
2023-05-04T16:21:15.964Z,30.78
2023-05-04T16:23:47.612Z,31.22
2023-05-04T16:26:16.525Z,31.61
2023-05-04T16:28:46.148Z,31.79
2023-05-04T16:31:18.528Z,31.46
2023-05-04T16:33:48.719Z,31.67
2023-05-04T16:36:17.548Z,32.66
2023-05-04T16:38:50.129Z,32.61
2023-05-04T16:41:19.588Z,32.52
2023-05-04T16:43:49.866Z,32.04
2023-05-04T16:46:19.455Z,32.51
2023-05-04T16:48:48.286Z,31.80
2023-05-04T16:51:17.149Z,32.00
2023-05-04T16:53:46.388Z,32.78
2023-05-04T16:56:19.876Z,32.15
2023-05-04T16:58:48.710Z,32.20
2023-05-04T17:01:18.199Z,32.14
2023-05-04T17:03:47.236Z,32.29
2023-05-04T17:06:17.736Z,31.89
2023-05-04T17:08:46.860Z,33.22
2023-05-04T17:11:15.829Z,32.85
2023-05-04T17:13:45.331Z,32.58
2023-05-04T17:16:14.068Z,32.63
2023-05-04T17:18:42.935Z,33.07
2023-05-04T17:21:11.583Z,32.81
2023-05-04T17:23:40.406Z,32.74
2023-05-04T17:26:10.647Z,33.22
2023-05-04T17:28:39.678Z,32.99
2023-05-04T17:31:13.507Z,32.54
2023-05-04T17:33:42.733Z,32.84
2023-05-04T17:36:12.749Z,33.31
2023-05-04T17:38:42.371Z,33.15
2023-05-04T17:41:11.527Z,33.21
2023-05-04T17:43:40.630Z,32.43
2023-05-04T17:46:09.351Z,33.24
2023-05-04T17:48:38.953Z,33.39
2023-05-04T17:51:11.108Z,32.82
2023-05-04T17:53:39.859Z,33.38
2023-05-04T17:56:08.926Z,33.64
2023-05-04T17:58:38.445Z,33.16
2023-05-04T18:01:07.750Z,33.03
2023-05-04T18:03:37.144Z,32.99
2023-05-04T18:06:07.248Z,33.20
2023-05-04T18:08:36.064Z,33.11
2023-05-04T18:11:05.069Z,33.40
2023-05-04T18:13:33.996Z,33.64
2023-05-04T18:16:02.867Z,33.14
2023-05-04T18:18:31.892Z,33.42
2023-05-04T18:21:01.562Z,33.11
2023-05-04T18:23:30.900Z,33.66
2023-05-04T18:25:59.706Z,33.06
2023-05-04T18:28:29.324Z,33.34
2023-05-04T18:31:00.777Z,33.52
2023-05-04T18:33:30.212Z,33.28
2023-05-04T18:36:01.766Z,33.61
2023-05-04T18:38:30.630Z,33.79
2023-05-04T18:41:00.661Z,33.51
2023-05-04T18:43:29.619Z,33.79
2023-05-04T18:45:58.502Z,33.71
2023-05-04T18:48:27.858Z,33.81
2023-05-04T18:50:57.976Z,34.01
2023-05-04T18:53:27.538Z,34.06
2023-05-04T18:56:07.526Z,33.60
2023-05-04T18:58:40.274Z,33.89
2023-05-04T19:01:09.545Z,34.37
2023-05-04T19:03:38.982Z,34.64
2023-05-04T19:06:08.588Z,34.90
2023-05-04T19:08:37.417Z,35.04
2023-05-04T19:11:06.257Z,34.91
2023-05-04T19:13:35.559Z,35.18
2023-05-04T19:16:04.786Z,35.31
2023-05-04T19:18:35.248Z,35.42
2023-05-04T19:21:07.220Z,35.19
2023-05-04T19:23:36.627Z,35.91
2023-05-04T19:26:06.717Z,35.67
2023-05-04T19:28:35.650Z,35.78
2023-05-04T19:31:04.811Z,36.00
2023-05-04T19:33:47.199Z,35.57
2023-05-04T19:36:17.778Z,35.54
2023-05-04T19:38:46.728Z,35.95
2023-05-04T19:41:15.629Z,35.95
2023-05-04T19:43:44.646Z,35.70
2023-05-04T19:46:13.621Z,35.99
2023-05-04T19:48:42.678Z,35.96
2023-05-04T19:51:11.426Z,36.09
2023-05-04T19:53:43.252Z,36.49
2023-05-04T19:56:12.686Z,36.61
2023-05-04T19:58:41.608Z,37.26
2023-05-04T20:01:11.408Z,36.66
2023-05-04T20:03:43.070Z,36.35
2023-05-04T20:06:12.952Z,36.76
2023-05-04T20:08:41.989Z,36.32
2023-05-04T20:11:10.616Z,36.25
2023-05-04T20:13:39.412Z,36.08
2023-05-04T20:16:08.190Z,36.95
2023-05-04T20:18:37.067Z,36.84
2023-05-04T20:21:06.102Z,37.01
2023-05-04T20:23:34.865Z,36.53
2023-05-04T20:26:05.878Z,36.91
2023-05-04T20:28:34.969Z,36.56
2023-05-04T20:31:04.008Z,36.20
2023-05-04T20:33:33.182Z,36.19
2023-05-04T20:36:01.962Z,35.67
2023-05-04T20:38:30.731Z,35.84
2023-05-04T20:41:09.761Z,35.74
2023-05-04T20:43:38.752Z,35.90
2023-05-04T20:46:08.750Z,36.09
2023-05-04T20:48:37.838Z,35.99
2023-05-04T20:51:14.383Z,35.92
2023-05-04T20:53:44.102Z,34.79
2023-05-04T20:56:12.972Z,34.79
2023-05-04T20:58:42.460Z,34.75
2023-05-04T21:01:11.440Z,34.75
2023-05-04T21:03:40.265Z,34.61
2023-05-04T21:06:09.188Z,34.68
2023-05-04T21:08:38.101Z,34.53
2023-05-04T21:11:07.499Z,34.07
2023-05-04T21:13:36.415Z,33.48
2023-05-04T21:16:05.666Z,33.13
2023-05-04T21:18:35.479Z,32.85
2023-05-04T21:21:07.445Z,33.05
2023-05-04T21:23:36.154Z,33.45
2023-05-04T21:26:05.696Z,33.11
2023-05-04T21:28:34.767Z,33.19
2023-05-04T21:31:07.964Z,33.42
2023-05-04T21:33:37.081Z,33.22
2023-05-04T21:36:16.059Z,33.42
2023-05-04T21:38:44.822Z,33.52
2023-05-04T21:41:14.777Z,33.13
2023-05-04T21:43:44.459Z,33.18
2023-05-04T21:46:13.500Z,33.37
2023-05-04T21:48:42.547Z,33.81
2023-05-04T21:51:11.631Z,33.99
2023-05-04T21:53:40.332Z,34.04
2023-05-04T21:56:10.102Z,34.08
2023-05-04T21:58:41.104Z,34.26
2023-05-04T22:01:10.644Z,34.64
2023-05-04T22:03:39.579Z,34.95
2023-05-04T22:06:08.522Z,34.42
2023-05-04T22:08:37.472Z,34.81
2023-05-04T22:11:07.204Z,35.05
2023-05-04T22:13:36.240Z,34.90
2023-05-04T22:16:05.448Z,34.91
2023-05-04T22:18:34.202Z,35.57
2023-05-04T22:21:03.088Z,35.19
2023-05-04T22:23:32.086Z,34.90
2023-05-04T22:26:01.052Z,34.64
2023-05-04T22:28:29.969Z,35.34
2023-05-04T22:31:00.348Z,35.22
2023-05-04T22:33:29.742Z,35.20
2023-05-04T22:35:58.568Z,35.59
2023-05-04T22:38:27.875Z,35.75
2023-05-04T22:40:56.671Z,35.26
2023-05-04T22:43:25.569Z,35.25
2023-05-04T22:45:54.480Z,35.79
2023-05-04T22:48:26.364Z,35.29
2023-05-04T22:50:55.917Z,36.06
2023-05-04T22:53:25.458Z,35.51
2023-05-04T22:55:54.598Z,36.37
2023-05-04T22:58:25.630Z,35.73
2023-05-04T23:00:54.582Z,35.89
2023-05-04T23:03:26.076Z,36.53
2023-05-04T23:05:55.119Z,35.92
2023-05-04T23:08:27.284Z,35.98
2023-05-04T23:10:56.193Z,36.44
2023-05-04T23:13:25.192Z,36.48
2023-05-04T23:15:53.978Z,35.92
2023-05-04T23:18:23.008Z,36.67
2023-05-04T23:20:52.205Z,36.37
2023-05-04T23:23:21.371Z,36.13
2023-05-04T23:25:50.212Z,35.92
2023-05-04T23:28:18.968Z,36.07
2023-05-04T23:30:47.809Z,35.92
2023-05-04T23:33:16.770Z,35.86
2023-05-04T23:35:45.692Z,35.83
2023-05-04T23:38:14.588Z,36.68
2023-05-04T23:40:43.344Z,37.07
2023-05-04T23:43:12.369Z,36.69
2023-05-04T23:45:41.268Z,36.40
2023-05-04T23:48:10.433Z,36.57
2023-05-04T23:50:39.704Z,36.40
2023-05-04T23:53:08.427Z,36.71
2023-05-04T23:55:37.360Z,36.34
2023-05-04T23:58:06.018Z,36.41
